Terminal Aerodrome Forecast
Issued by NWS North Platte, NE

Home | Current Version | Previous Version | Text Only | Print | Product List | Glossary Off
Versions: 1 2 3 4 5 6 7 8 9 10 11 12 13 14 15 16 17 18 19 20

000
FTUS43 KLBF 180103 AAA
TAFVTN
TAF AMD
KVTN 180103Z 1801/1824 06010KT P6SM VCSH OVC050
     FM180200 02013KT 6SM -SHRA BKN025 OVC050
     FM180400 36012KT 6SM -SHRASN OVC015
     FM180600 33013G22KT 4SM -SHSN BKN007 OVC015
     FM181200 32017G25KT P6SM VCSH BKN015
     FM181400 33017G25KT P6SM BKN025=

USA.gov is the U.S. government's official web portal to all federal, state and local government web resources and services.